createdAt,value
2018-11-13T00:00:35.727Z,15.12
2018-11-13T00:01:34.576Z,15.10
2018-11-13T00:02:34.584Z,15.14
2018-11-13T00:03:34.601Z,15.10
2018-11-13T00:04:34.595Z,15.08
2018-11-13T00:05:34.678Z,15.05
2018-11-13T00:06:34.583Z,15.02
2018-11-13T00:07:34.722Z,15.07
2018-11-13T00:08:34.607Z,15.08
2018-11-13T00:09:34.637Z,14.99
2018-11-13T00:10:34.611Z,14.99
2018-11-13T00:11:34.830Z,15.00
2018-11-13T00:12:34.716Z,15.12
2018-11-13T00:13:34.685Z,15.07
2018-11-13T00:14:34.647Z,14.99
2018-11-13T00:15:34.705Z,15.02
2018-11-13T00:16:34.881Z,14.99
2018-11-13T00:17:34.710Z,14.99
2018-11-13T00:18:34.709Z,15.00
2018-11-13T00:19:34.795Z,14.99
2018-11-13T00:20:34.723Z,15.05
2018-11-13T00:21:34.697Z,15.00
2018-11-13T00:22:34.705Z,15.00
2018-11-13T00:23:34.751Z,14.99
2018-11-13T00:24:35.317Z,15.02
2018-11-13T00:25:34.874Z,14.99
2018-11-13T00:26:34.729Z,15.05
2018-11-13T00:27:35.199Z,15.04
2018-11-13T00:28:34.771Z,14.99
2018-11-13T00:29:35.103Z,15.00
2018-11-13T00:30:34.794Z,15.05
2018-11-13T00:31:34.771Z,15.02
2018-11-13T00:32:34.777Z,14.99
2018-11-13T00:33:34.786Z,15.00
2018-11-13T00:34:34.815Z,15.04
2018-11-13T00:35:35.013Z,14.97
2018-11-13T00:36:34.810Z,14.99
2018-11-13T00:37:34.813Z,15.04
2018-11-13T00:38:34.821Z,15.11
2018-11-13T00:39:34.831Z,15.08
2018-11-13T00:40:34.857Z,14.99
2018-11-13T00:41:34.862Z,14.99
2018-11-13T00:42:34.854Z,14.97
2018-11-13T00:43:34.964Z,14.96
2018-11-13T00:44:34.864Z,15.02
2018-11-13T00:45:34.947Z,14.96
2018-11-13T00:46:34.937Z,14.92
2018-11-13T00:47:34.888Z,14.93
2018-11-13T00:48:34.933Z,14.96
2018-11-13T00:49:34.927Z,14.94
2018-11-13T00:50:34.922Z,14.94
2018-11-13T00:51:34.913Z,14.89
2018-11-13T00:52:34.943Z,14.85
2018-11-13T00:53:34.927Z,14.89
2018-11-13T00:54:34.962Z,14.86
2018-11-13T00:55:34.941Z,14.92
2018-11-13T00:56:34.949Z,14.85
2018-11-13T00:57:34.955Z,14.77
2018-11-13T00:58:34.963Z,14.85
2018-11-13T00:59:35.024Z,14.87
2018-11-13T01:00:35.019Z,14.89
2018-11-13T01:01:34.984Z,14.73
2018-11-13T01:02:34.991Z,14.82
2018-11-13T01:03:35.038Z,14.74
2018-11-13T01:04:35.009Z,14.82
2018-11-13T01:05:35.053Z,14.85
2018-11-13T01:06:35.045Z,14.79
2018-11-13T01:07:35.067Z,14.82
2018-11-13T01:08:35.073Z,14.89
2018-11-13T01:09:35.039Z,14.90
2018-11-13T01:10:35.087Z,14.86
2018-11-13T01:11:35.056Z,14.87
2018-11-13T01:12:35.072Z,14.85
2018-11-13T01:13:35.110Z,14.87
2018-11-13T01:14:35.078Z,14.92
2018-11-13T01:15:35.124Z,14.93
2018-11-13T01:16:35.090Z,14.89
2018-11-13T01:17:35.118Z,14.97
2018-11-13T01:18:35.104Z,14.89
2018-11-13T01:19:35.151Z,14.92
2018-11-13T01:20:35.150Z,14.94
2018-11-13T01:21:35.125Z,14.90
2018-11-13T01:22:35.358Z,14.86
2018-11-13T01:23:35.141Z,14.90
2018-11-13T01:24:35.188Z,14.87
2018-11-13T01:25:35.187Z,14.89
2018-11-13T01:26:35.173Z,14.82
2018-11-13T01:27:35.179Z,14.78
2018-11-13T01:28:35.196Z,14.86
2018-11-13T01:29:35.215Z,14.79
2018-11-13T01:30:35.223Z,14.77
2018-11-13T01:31:35.292Z,14.86
2018-11-13T01:32:35.233Z,14.87
2018-11-13T01:33:35.212Z,14.87
2018-11-13T01:34:35.219Z,14.86
2018-11-13T01:35:35.222Z,14.77
2018-11-13T01:36:35.231Z,14.85
2018-11-13T01:37:35.269Z,14.86
2018-11-13T01:38:35.245Z,14.73
2018-11-13T01:39:35.250Z,14.79
2018-11-13T01:40:35.262Z,14.82
2018-11-13T01:41:35.679Z,14.86
2018-11-13T01:42:35.295Z,14.79
2018-11-13T01:43:35.309Z,14.81
2018-11-13T01:44:35.290Z,14.81
2018-11-13T01:45:35.297Z,14.74
2018-11-13T01:46:35.332Z,14.77
2018-11-13T01:47:35.307Z,14.78
2018-11-13T01:48:35.349Z,14.67
2018-11-13T01:49:35.391Z,14.78
2018-11-13T01:50:35.330Z,14.73
2018-11-13T01:51:35.363Z,14.73
2018-11-13T01:52:35.676Z,14.73
2018-11-13T01:53:35.398Z,14.78
2018-11-13T01:54:35.359Z,14.71
2018-11-13T01:55:35.363Z,14.67
2018-11-13T01:56:35.402Z,14.62
2018-11-13T01:57:35.391Z,14.63
2018-11-13T01:58:35.424Z,14.63
2018-11-13T01:59:35.402Z,14.78
2018-11-13T02:00:35.418Z,14.67
2018-11-13T02:01:35.442Z,14.71
2018-11-13T02:02:35.445Z,14.71
2018-11-13T02:03:35.424Z,14.78
2018-11-13T02:04:35.461Z,14.79
2018-11-13T02:05:35.477Z,14.61
2018-11-13T02:06:35.446Z,14.67
2018-11-13T02:07:35.474Z,14.77
2018-11-13T02:08:35.458Z,14.67
2018-11-13T02:09:35.504Z,14.70
2018-11-13T02:10:35.474Z,14.70
2018-11-13T02:11:35.510Z,14.63
2018-11-13T02:12:35.488Z,14.74
2018-11-13T02:13:35.495Z,14.74
2018-11-13T02:14:35.506Z,14.78
2018-11-13T02:15:35.510Z,14.74
2018-11-13T02:16:35.543Z,14.74
2018-11-13T02:17:35.523Z,14.71
2018-11-13T02:18:35.557Z,14.70
2018-11-13T02:19:35.537Z,14.74
2018-11-13T02:20:35.574Z,14.63
2018-11-13T02:21:35.620Z,14.73
2018-11-13T02:22:35.559Z,14.67
2018-11-13T02:23:35.564Z,14.71
2018-11-13T02:24:35.577Z,14.74
2018-11-13T02:25:35.598Z,14.74
2018-11-13T02:26:35.611Z,14.74
2018-11-13T02:27:35.633Z,14.77
2018-11-13T02:28:35.601Z,14.78
2018-11-13T02:29:35.606Z,14.77
2018-11-13T02:30:35.618Z,14.79
2018-11-13T02:31:35.624Z,14.71
2018-11-13T02:32:35.660Z,14.78
2018-11-13T02:33:35.635Z,14.73
2018-11-13T02:34:35.680Z,14.79
2018-11-13T02:35:35.817Z,14.79
2018-11-13T02:36:35.660Z,14.67
2018-11-13T02:37:35.666Z,14.73
2018-11-13T02:38:35.674Z,14.79
2018-11-13T02:39:35.717Z,14.79
2018-11-13T02:40:35.723Z,14.86
2018-11-13T02:41:35.697Z,14.79
2018-11-13T02:42:35.706Z,14.73
2018-11-13T02:43:35.707Z,14.90
2018-11-13T02:44:35.715Z,14.77
2018-11-13T02:45:35.755Z,14.87
2018-11-13T02:46:35.730Z,14.78
2018-11-13T02:47:35.766Z,14.85
2018-11-13T02:48:35.745Z,14.89
2018-11-13T02:49:35.754Z,14.92
2018-11-13T02:50:35.785Z,14.90
2018-11-13T02:51:35.800Z,14.87
2018-11-13T02:52:35.776Z,14.82
2018-11-13T02:53:35.777Z,14.94
2018-11-13T02:54:35.787Z,14.93
2018-11-13T02:55:35.835Z,14.96
2018-11-13T02:56:35.803Z,14.92
2018-11-13T02:57:35.821Z,14.93
2018-11-13T02:58:35.824Z,14.94
2018-11-13T02:59:35.822Z,14.92
2018-11-13T03:00:35.862Z,14.92
2018-11-13T03:01:35.890Z,14.90
2018-11-13T03:02:35.844Z,14.94
2018-11-13T03:03:35.855Z,14.90
2018-11-13T03:04:35.867Z,14.99
2018-11-13T03:05:35.910Z,15.02
2018-11-13T03:06:35.878Z,14.90
2018-11-13T03:07:35.884Z,15.00
2018-11-13T03:08:35.959Z,14.99
2018-11-13T03:09:35.895Z,14.92
2018-11-13T03:10:35.904Z,14.96
2018-11-13T03:11:35.911Z,14.90
2018-11-13T03:12:35.959Z,14.92
2018-11-13T03:13:35.935Z,14.94
2018-11-13T03:14:35.930Z,15.00
2018-11-13T03:15:35.972Z,15.04
2018-11-13T03:16:35.954Z,14.96
2018-11-13T03:17:35.978Z,15.04
2018-11-13T03:18:35.991Z,14.99
2018-11-13T03:19:35.969Z,15.00
2018-11-13T03:20:35.986Z,15.02
2018-11-13T03:21:36.002Z,14.99
2018-11-13T03:22:36.018Z,15.05
2018-11-13T03:23:36.024Z,15.02
2018-11-13T03:24:36.024Z,15.05
2018-11-13T03:25:36.015Z,15.08
2018-11-13T03:26:36.034Z,14.99
2018-11-13T03:27:36.027Z,15.04
2018-11-13T03:28:36.073Z,14.97
2018-11-13T03:29:36.071Z,15.00
2018-11-13T03:30:36.062Z,15.05
2018-11-13T03:31:36.234Z,15.05
2018-11-13T03:32:36.064Z,15.02
2018-11-13T03:33:36.091Z,14.99
2018-11-13T03:34:36.140Z,14.99
2018-11-13T03:35:36.092Z,15.00
2018-11-13T03:36:36.103Z,15.10
2018-11-13T03:37:36.105Z,15.10
2018-11-13T03:38:36.105Z,15.05
2018-11-13T03:39:36.120Z,15.02
2018-11-13T03:40:36.168Z,15.05
2018-11-13T03:41:36.135Z,15.10
2018-11-13T03:42:36.132Z,15.04
2018-11-13T03:43:36.150Z,15.10
2018-11-13T03:44:36.198Z,15.05
2018-11-13T03:45:36.167Z,14.99
2018-11-13T03:46:36.192Z,14.94
2018-11-13T03:47:36.179Z,15.08
2018-11-13T03:48:36.178Z,14.94
2018-11-13T03:49:36.196Z,15.08
2018-11-13T03:50:36.202Z,15.02
2018-11-13T03:51:36.248Z,15.08
2018-11-13T03:52:36.218Z,15.04
2018-11-13T03:53:36.235Z,14.99
2018-11-13T03:54:36.245Z,15.00
2018-11-13T03:55:36.241Z,14.99
2018-11-13T03:56:36.269Z,15.15
2018-11-13T03:57:36.271Z,15.00
2018-11-13T03:58:36.295Z,15.02
2018-11-13T03:59:36.268Z,15.12
2018-11-13T04:00:36.284Z,15.00
2018-11-13T04:01:36.308Z,15.05
2018-11-13T04:02:36.300Z,15.04
2018-11-13T04:03:36.306Z,15.04
2018-11-13T04:04:36.318Z,15.00
2018-11-13T04:05:36.333Z,15.02
2018-11-13T04:06:36.322Z,15.00
2018-11-13T04:07:36.343Z,15.02
2018-11-13T04:08:36.336Z,15.07
2018-11-13T04:09:36.364Z,15.04
2018-11-13T04:10:36.349Z,15.07
2018-11-13T04:11:36.360Z,15.05
2018-11-13T04:12:36.378Z,15.02
2018-11-13T04:13:36.379Z,15.05
2018-11-13T04:14:36.386Z,15.04
2018-11-13T04:15:36.402Z,15.02
2018-11-13T04:16:36.397Z,14.99
2018-11-13T04:17:36.416Z,14.99
2018-11-13T04:18:36.416Z,15.08
2018-11-13T04:19:36.459Z,14.97
2018-11-13T04:20:36.433Z,14.96
2018-11-13T04:21:36.452Z,14.96
2018-11-13T04:22:36.438Z,14.97
2018-11-13T04:23:36.452Z,14.97
2018-11-13T04:24:36.472Z,14.94
2018-11-13T04:25:36.463Z,15.02
2018-11-13T04:26:36.467Z,15.04
2018-11-13T04:27:36.495Z,15.02
2018-11-13T04:28:36.497Z,15.10
2018-11-13T04:29:36.508Z,15.02
2018-11-13T04:30:36.508Z,14.97
2018-11-13T04:31:36.503Z,15.07
2018-11-13T04:32:36.513Z,15.02
2018-11-13T04:33:36.588Z,14.99
2018-11-13T04:34:36.530Z,15.00
2018-11-13T04:35:36.542Z,15.05
2018-11-13T04:36:36.566Z,15.02
2018-11-13T04:37:36.556Z,15.07
2018-11-13T04:38:36.556Z,15.02
2018-11-13T04:39:36.565Z,15.04
2018-11-13T04:40:36.585Z,15.02
2018-11-13T04:41:36.596Z,14.96
2018-11-13T04:42:36.583Z,15.05
2018-11-13T04:43:36.591Z,15.02
2018-11-13T04:44:36.597Z,15.05
2018-11-13T04:45:36.608Z,14.99
2018-11-13T04:46:36.631Z,15.02
2018-11-13T04:47:36.622Z,14.97
2018-11-13T04:48:36.683Z,15.02
2018-11-13T04:49:36.645Z,15.02
2018-11-13T04:50:36.640Z,14.99
2018-11-13T04:51:36.713Z,15.02
2018-11-13T04:52:36.655Z,15.07
2018-11-13T04:53:36.661Z,14.99
2018-11-13T04:54:36.693Z,15.04
2018-11-13T04:55:36.686Z,15.10
2018-11-13T04:56:36.683Z,15.05
2018-11-13T04:57:36.695Z,15.00
2018-11-13T04:58:36.700Z,15.05
2018-11-13T04:59:36.734Z,15.04
2018-11-13T05:00:36.730Z,15.05
2018-11-13T05:01:36.724Z,14.99
2018-11-13T05:02:36.737Z,15.10
2018-11-13T05:03:36.755Z,14.99
2018-11-13T05:04:36.751Z,15.02
2018-11-13T05:05:36.768Z,15.00
2018-11-13T05:06:36.758Z,14.96
2018-11-13T05:07:36.772Z,15.05
2018-11-13T05:08:36.773Z,15.02
2018-11-13T05:09:36.810Z,14.96
2018-11-13T05:10:36.833Z,15.05
2018-11-13T05:11:36.820Z,14.99
2018-11-13T05:12:36.801Z,15.04
2018-11-13T05:13:36.813Z,15.05
2018-11-13T05:14:36.830Z,15.00
2018-11-13T05:15:36.829Z,15.04
2018-11-13T05:16:36.833Z,15.02
2018-11-13T05:17:36.862Z,15.00
2018-11-13T05:18:36.844Z,14.94
2018-11-13T05:19:36.897Z,14.99
2018-11-13T05:20:36.859Z,15.04
2018-11-13T05:21:36.870Z,15.10
2018-11-13T05:22:36.876Z,15.07
2018-11-13T05:23:36.881Z,14.94
2018-11-13T05:24:36.908Z,15.02
2018-11-13T05:25:36.912Z,14.99
2018-11-13T05:26:36.909Z,15.00
2018-11-13T05:27:36.913Z,15.00
2018-11-13T05:28:36.916Z,15.11
2018-11-13T05:29:36.929Z,15.02
2018-11-13T05:30:36.955Z,14.99
2018-11-13T05:31:36.939Z,15.14
2018-11-13T05:32:36.947Z,15.05
2018-11-13T05:33:36.987Z,15.02
2018-11-13T05:34:36.960Z,15.05
2018-11-13T05:35:36.972Z,15.14
2018-11-13T05:36:36.981Z,15.00
2018-11-13T05:37:36.988Z,15.14
2018-11-13T05:38:37.016Z,15.07
2018-11-13T05:39:37.018Z,15.04
2018-11-13T05:40:37.004Z,15.10
2018-11-13T05:41:37.072Z,15.05
2018-11-13T05:42:37.018Z,14.99
2018-11-13T05:43:37.028Z,15.02
2018-11-13T05:44:37.043Z,15.05
2018-11-13T05:45:37.051Z,15.05
2018-11-13T05:46:37.079Z,15.08
2018-11-13T05:47:37.057Z,15.02
2018-11-13T05:48:37.058Z,15.07
2018-11-13T05:49:37.116Z,15.02
2018-11-13T05:50:37.085Z,15.02
2018-11-13T05:51:37.091Z,15.05
2018-11-13T05:52:37.091Z,15.08
2018-11-13T05:53:37.113Z,15.02
2018-11-13T05:54:37.134Z,15.07
2018-11-13T05:55:37.142Z,15.02
2018-11-13T05:56:37.118Z,15.07
2018-11-13T05:57:37.126Z,15.07
2018-11-13T05:58:37.141Z,15.02
2018-11-13T05:59:37.183Z,15.05
2018-11-13T06:00:37.186Z,15.05
2018-11-13T06:01:37.180Z,15.00
2018-11-13T06:02:37.167Z,15.05
2018-11-13T06:03:37.191Z,14.99
2018-11-13T06:04:37.186Z,15.05
2018-11-13T06:05:37.205Z,15.02
2018-11-13T06:06:37.213Z,15.07
2018-11-13T06:07:37.211Z,15.07
2018-11-13T06:08:37.307Z,15.04
2018-11-13T06:09:37.215Z,15.15
2018-11-13T06:10:37.250Z,15.02
2018-11-13T06:11:37.284Z,15.04
2018-11-13T06:12:37.276Z,15.00
2018-11-13T06:13:37.246Z,15.12
2018-11-13T06:14:37.285Z,15.04
2018-11-13T06:15:37.266Z,15.05
2018-11-13T06:16:37.266Z,15.04
2018-11-13T06:17:37.280Z,15.05
2018-11-13T06:18:37.291Z,15.10
2018-11-13T06:19:37.311Z,15.02
2018-11-13T06:20:37.301Z,15.02
2018-11-13T06:21:37.317Z,15.04
2018-11-13T06:22:37.326Z,15.02
2018-11-13T06:23:37.358Z,15.07
2018-11-13T06:24:37.333Z,15.11
2018-11-13T06:25:37.334Z,15.07
2018-11-13T06:26:37.374Z,15.05
2018-11-13T06:27:37.350Z,15.17
2018-11-13T06:28:37.385Z,15.02
2018-11-13T06:29:37.436Z,15.02
2018-11-13T06:30:37.423Z,14.97
2018-11-13T06:31:37.429Z,15.02
2018-11-13T06:32:37.381Z,15.05
2018-11-13T06:33:37.405Z,15.12
2018-11-13T06:34:37.407Z,15.05
2018-11-13T06:35:37.422Z,15.05
2018-11-13T06:36:37.447Z,15.02
2018-11-13T06:37:37.419Z,15.02
2018-11-13T06:38:37.534Z,15.04
2018-11-13T06:39:37.431Z,15.07
2018-11-13T06:40:37.481Z,15.00
2018-11-13T06:41:37.446Z,15.05
2018-11-13T06:42:37.473Z,15.05
2018-11-13T06:43:37.509Z,15.00
2018-11-13T06:44:37.516Z,15.02
2018-11-13T06:45:37.507Z,15.02
2018-11-13T06:46:37.489Z,15.05
2018-11-13T06:47:37.491Z,15.00
2018-11-13T06:48:37.499Z,15.11
2018-11-13T06:49:37.645Z,15.00
2018-11-13T06:50:37.511Z,15.00
2018-11-13T06:51:37.522Z,15.02
2018-11-13T06:52:37.546Z,15.04
2018-11-13T06:53:37.537Z,15.00
2018-11-13T06:54:37.570Z,15.04
2018-11-13T06:55:37.587Z,15.02
2018-11-13T06:56:37.560Z,15.00
2018-11-13T06:57:37.579Z,14.99
2018-11-13T06:58:37.588Z,15.10
2018-11-13T06:59:37.606Z,15.04
2018-11-13T07:00:37.624Z,15.05
2018-11-13T07:01:37.607Z,15.07
2018-11-13T07:02:37.608Z,15.12
2018-11-13T07:03:37.638Z,15.07
2018-11-13T07:04:37.644Z,15.17
2018-11-13T07:05:37.648Z,15.08
2018-11-13T07:06:37.676Z,15.07
2018-11-13T07:07:37.689Z,15.08
2018-11-13T07:08:37.642Z,15.08
2018-11-13T07:09:37.694Z,15.15
2018-11-13T07:10:37.743Z,15.11
2018-11-13T07:11:37.692Z,15.11
2018-11-13T07:12:37.698Z,15.08
2018-11-13T07:13:37.678Z,15.12
2018-11-13T07:14:37.932Z,15.10
2018-11-13T07:15:37.891Z,15.14
2018-11-13T07:16:37.743Z,15.14
2018-11-13T07:17:37.742Z,15.11
2018-11-13T07:18:37.837Z,15.08
2018-11-13T07:19:37.739Z,15.11
2018-11-13T07:20:37.774Z,15.18
2018-11-13T07:21:37.787Z,15.15
2018-11-13T07:22:37.778Z,15.12
2018-11-13T07:23:37.783Z,15.07
2018-11-13T07:24:37.810Z,15.12
2018-11-13T07:25:37.810Z,15.11
2018-11-13T07:26:37.802Z,15.23
2018-11-13T07:27:37.950Z,15.12
2018-11-13T07:28:37.833Z,15.26
2018-11-13T07:29:37.876Z,15.12
2018-11-13T07:30:37.815Z,15.12
2018-11-13T07:31:37.839Z,15.25
2018-11-13T07:32:37.847Z,15.25
2018-11-13T07:33:37.925Z,15.25
2018-11-13T07:34:37.902Z,15.26
2018-11-13T07:35:38.328Z,15.26
2018-11-13T07:36:37.852Z,15.23
2018-11-13T07:37:37.893Z,15.23
2018-11-13T07:38:37.887Z,15.22
2018-11-13T07:39:37.924Z,15.25
2018-11-13T07:40:37.910Z,15.22
2018-11-13T07:41:37.886Z,15.22
2018-11-13T07:42:37.962Z,15.22
2018-11-13T07:43:37.924Z,15.19
2018-11-13T07:44:37.914Z,15.25
2018-11-13T07:45:37.962Z,15.30
2018-11-13T07:46:37.960Z,15.15
2018-11-13T07:47:38.235Z,15.29
2018-11-13T07:48:37.940Z,15.23
2018-11-13T07:49:37.952Z,15.23
2018-11-13T07:50:37.970Z,15.19
2018-11-13T07:51:38.003Z,15.30
2018-11-13T07:52:37.984Z,15.19
2018-11-13T07:53:38.076Z,15.32
2018-11-13T07:54:38.141Z,15.30
2018-11-13T07:55:38.025Z,15.37
2018-11-13T07:56:38.003Z,15.32
2018-11-13T07:57:38.007Z,15.33
2018-11-13T07:58:38.066Z,15.29
2018-11-13T07:59:38.019Z,15.19
2018-11-13T08:00:38.051Z,15.25
2018-11-13T08:01:38.053Z,15.26
2018-11-13T08:02:38.052Z,15.22
2018-11-13T08:03:38.410Z,15.26
2018-11-13T08:04:38.092Z,15.35
2018-11-13T08:05:38.096Z,15.33
2018-11-13T08:06:38.161Z,15.22
2018-11-13T08:07:38.094Z,15.32
2018-11-13T08:08:38.111Z,15.30
2018-11-13T08:09:38.106Z,15.25
2018-11-13T08:10:38.118Z,15.30
2018-11-13T08:11:38.174Z,15.35
2018-11-13T08:12:38.171Z,15.27
2018-11-13T08:13:38.241Z,15.33
2018-11-13T08:14:38.162Z,15.39
2018-11-13T08:15:38.157Z,15.36
2018-11-13T08:16:38.165Z,15.32
2018-11-13T08:17:38.187Z,15.29
2018-11-13T08:18:38.185Z,15.37
2018-11-13T08:19:38.221Z,15.41
2018-11-13T08:20:38.202Z,15.33
2018-11-13T08:21:38.202Z,15.33
2018-11-13T08:22:38.217Z,15.35
2018-11-13T08:23:38.215Z,15.39
2018-11-13T08:24:38.270Z,15.35
2018-11-13T08:25:38.251Z,15.39
2018-11-13T08:26:38.288Z,15.41
2018-11-13T08:27:38.235Z,15.39
2018-11-13T08:28:38.275Z,15.44
2018-11-13T08:29:38.336Z,15.41
2018-11-13T08:30:38.280Z,15.39
2018-11-13T08:31:38.272Z,15.43
2018-11-13T08:32:38.290Z,15.47
2018-11-13T08:33:38.288Z,15.44
2018-11-13T08:34:38.341Z,15.45
2018-11-13T08:35:38.359Z,15.43
2018-11-13T08:36:38.354Z,15.45
2018-11-13T08:37:38.313Z,15.47
2018-11-13T08:38:38.331Z,15.45
2018-11-13T08:39:38.326Z,15.41
2018-11-13T08:40:38.472Z,15.50
2018-11-13T08:41:38.356Z,15.44
2018-11-13T08:42:38.358Z,15.45
2018-11-13T08:43:38.414Z,15.51
2018-11-13T08:44:38.414Z,15.47
2018-11-13T08:45:38.386Z,15.47
2018-11-13T08:46:38.399Z,15.48
2018-11-13T08:47:38.477Z,15.47
2018-11-13T08:48:38.402Z,15.47
2018-11-13T08:49:38.409Z,15.57
2018-11-13T08:50:38.498Z,15.50
2018-11-13T08:51:38.444Z,15.51
2018-11-13T08:52:38.433Z,15.51
2018-11-13T08:53:38.438Z,15.50
2018-11-13T08:54:38.454Z,15.51
2018-11-13T08:55:38.451Z,15.48
2018-11-13T08:56:38.496Z,15.47
2018-11-13T08:57:38.501Z,15.62
2018-11-13T08:58:38.512Z,15.52
2018-11-13T08:59:38.546Z,15.59
2018-11-13T09:00:38.495Z,15.59
2018-11-13T09:01:38.536Z,15.62
2018-11-13T09:02:38.533Z,15.57
2018-11-13T09:03:38.512Z,15.65
2018-11-13T09:04:38.516Z,15.59
2018-11-13T09:05:38.546Z,15.66
2018-11-13T09:06:38.531Z,15.51
2018-11-13T09:07:38.568Z,15.63
2018-11-13T09:08:38.595Z,15.66
2018-11-13T09:09:38.553Z,15.59
2018-11-13T09:10:38.722Z,15.70
2018-11-13T09:11:38.637Z,15.60
2018-11-13T09:12:38.605Z,15.63
2018-11-13T09:13:38.618Z,15.62
2018-11-13T09:14:38.637Z,15.69
2018-11-13T09:15:38.595Z,15.69
2018-11-13T09:16:38.621Z,15.73
2018-11-13T09:17:38.614Z,15.75
2018-11-13T09:18:38.625Z,15.66
2018-11-13T09:19:38.850Z,15.69
2018-11-13T09:20:38.675Z,15.69
2018-11-13T09:21:38.715Z,15.69
2018-11-13T09:22:38.668Z,15.81
2018-11-13T09:23:38.697Z,15.76
2018-11-13T09:24:38.699Z,15.73
2018-11-13T09:25:38.702Z,15.72
2018-11-13T09:26:38.717Z,15.84
2018-11-13T09:27:38.707Z,15.76
2018-11-13T09:28:38.715Z,15.75
2018-11-13T09:29:38.738Z,15.80
2018-11-13T09:30:38.901Z,15.76
2018-11-13T09:31:38.808Z,15.80
2018-11-13T09:32:38.803Z,15.75
2018-11-13T09:33:38.804Z,15.73
2018-11-13T09:34:38.840Z,15.80
2018-11-13T09:35:38.773Z,15.76
2018-11-13T09:36:38.782Z,15.76
2018-11-13T09:37:38.890Z,15.88
2018-11-13T09:38:38.795Z,15.80
2018-11-13T09:39:38.790Z,15.83
2018-11-13T09:40:38.816Z,15.87
2018-11-13T09:41:38.844Z,15.83
2018-11-13T09:42:38.976Z,15.87
2018-11-13T09:43:38.832Z,15.84
2018-11-13T09:44:38.838Z,15.80
2018-11-13T09:45:38.972Z,15.92
2018-11-13T09:46:38.932Z,15.85
2018-11-13T09:47:38.979Z,15.88
2018-11-13T09:48:38.952Z,15.91
2018-11-13T09:49:38.878Z,15.84
2018-11-13T09:50:38.946Z,15.84
2018-11-13T09:51:38.885Z,15.90
2018-11-13T09:52:38.891Z,15.92
2018-11-13T09:53:38.948Z,15.85
2018-11-13T09:54:38.905Z,15.91
2018-11-13T09:55:38.917Z,15.92
2018-11-13T09:56:39.380Z,15.92
2018-11-13T09:57:38.930Z,15.98
2018-11-13T09:58:38.945Z,16.03
2018-11-13T09:59:38.962Z,15.99
2018-11-13T10:00:39.077Z,16.08
2018-11-13T10:01:39.571Z,16.12
2018-11-13T10:02:39.534Z,16.00
2018-11-13T10:03:39.665Z,16.06
2018-11-13T10:04:39.681Z,16.09
2018-11-13T10:05:39.142Z,16.08
2018-11-13T10:06:39.105Z,16.06
2018-11-13T10:07:39.086Z,16.02
2018-11-13T10:08:39.051Z,16.05
2018-11-13T10:09:39.032Z,16.02
2018-11-13T10:10:39.162Z,15.98
2018-11-13T10:11:39.059Z,15.88
2018-11-13T10:12:39.212Z,15.98
2018-11-13T10:13:39.123Z,15.96
2018-11-13T10:14:39.063Z,15.92
2018-11-13T10:15:39.088Z,15.91
2018-11-13T10:16:40.934Z,15.99
2018-11-13T10:17:39.174Z,15.99
2018-11-13T10:18:39.095Z,15.92
2018-11-13T10:19:39.193Z,15.91
2018-11-13T10:20:39.110Z,15.91
2018-11-13T10:21:39.145Z,15.91
2018-11-13T10:22:39.150Z,15.96
2018-11-13T10:23:39.134Z,15.96
2018-11-13T10:24:39.172Z,16.00
2018-11-13T10:25:39.148Z,15.96
2018-11-13T10:26:39.190Z,15.99
2018-11-13T10:27:39.199Z,15.91
2018-11-13T10:28:39.183Z,15.94
2018-11-13T10:29:39.205Z,15.99
2018-11-13T10:30:39.232Z,15.92
2018-11-13T10:31:39.204Z,15.91
2018-11-13T10:32:39.243Z,15.90
2018-11-13T10:33:39.211Z,15.85
2018-11-13T10:34:39.221Z,15.85
2018-11-13T10:35:39.265Z,15.88
2018-11-13T10:36:39.233Z,15.85
2018-11-13T10:37:39.278Z,15.75
2018-11-13T10:38:39.309Z,15.81
2018-11-13T10:39:39.261Z,15.72
2018-11-13T10:40:39.471Z,15.81
2018-11-13T10:41:39.272Z,15.80
2018-11-13T10:42:39.315Z,15.81
2018-11-13T10:43:39.300Z,15.75
2018-11-13T10:44:39.358Z,15.87
2018-11-13T10:45:39.477Z,15.94
2018-11-13T10:46:39.395Z,15.88
2018-11-13T10:47:39.338Z,15.84
2018-11-13T10:48:39.365Z,15.92
2018-11-13T10:49:39.353Z,15.85
2018-11-13T10:50:39.369Z,15.78
2018-11-13T10:51:39.366Z,15.85
2018-11-13T10:52:39.409Z,15.84
2018-11-13T10:53:39.404Z,15.85
2018-11-13T10:54:39.379Z,15.83
2018-11-13T10:55:39.391Z,15.85
2018-11-13T10:56:39.444Z,15.80
2018-11-13T10:57:39.431Z,15.75
2018-11-13T10:58:39.425Z,15.94
2018-11-13T10:59:39.435Z,15.90
2018-11-13T11:00:39.442Z,15.90
2018-11-13T11:01:39.453Z,15.88
2018-11-13T11:02:39.529Z,15.96
2018-11-13T11:03:39.464Z,15.85
2018-11-13T11:04:39.477Z,15.91
2018-11-13T11:05:39.487Z,15.90
2018-11-13T11:06:39.488Z,15.91
2018-11-13T11:07:39.529Z,15.84
2018-11-13T11:08:39.549Z,15.96
2018-11-13T11:09:39.509Z,15.91
2018-11-13T11:10:39.513Z,15.99
2018-11-13T11:11:39.536Z,15.99
2018-11-13T11:12:39.619Z,15.94
2018-11-13T11:13:39.707Z,15.98
2018-11-13T11:14:39.579Z,15.94
2018-11-13T11:15:39.551Z,16.03
2018-11-13T11:16:39.556Z,16.09
2018-11-13T11:17:39.576Z,15.99
2018-11-13T11:18:39.675Z,15.98
2018-11-13T11:19:39.588Z,15.98
2018-11-13T11:20:39.590Z,15.96
2018-11-13T11:21:39.613Z,15.99
2018-11-13T11:22:39.641Z,15.94
2018-11-13T11:23:39.670Z,15.94
2018-11-13T11:24:39.642Z,15.92
2018-11-13T11:25:39.704Z,15.98
2018-11-13T11:26:39.654Z,15.87
2018-11-13T11:27:39.719Z,15.96
2018-11-13T11:28:39.682Z,15.90
2018-11-13T11:29:39.665Z,15.88
2018-11-13T11:30:39.752Z,15.91
2018-11-13T11:31:39.727Z,15.92
2018-11-13T11:32:39.713Z,15.96
2018-11-13T11:33:39.707Z,15.99
2018-11-13T11:34:39.724Z,15.98
2018-11-13T11:35:39.745Z,15.94
2018-11-13T11:36:39.728Z,16.00
2018-11-13T11:37:39.735Z,15.96
2018-11-13T11:38:39.823Z,15.96
2018-11-13T11:39:39.756Z,15.96
2018-11-13T11:40:39.808Z,15.92
2018-11-13T11:41:39.769Z,16.00
2018-11-13T11:42:39.769Z,15.87
2018-11-13T11:43:39.785Z,16.02
2018-11-13T11:44:39.810Z,15.88
2018-11-13T11:45:39.879Z,15.87
2018-11-13T11:46:39.852Z,15.88
2018-11-13T11:47:39.835Z,15.76
2018-11-13T11:48:39.822Z,15.90
2018-11-13T11:49:39.837Z,15.96
2018-11-13T11:50:39.834Z,15.94
2018-11-13T11:51:39.918Z,16.00
2018-11-13T11:52:39.859Z,15.99
2018-11-13T11:53:39.932Z,15.96
2018-11-13T11:54:39.876Z,15.91
2018-11-13T11:55:39.872Z,15.92
2018-11-13T11:56:39.973Z,15.92
2018-11-13T11:57:39.890Z,15.85
2018-11-13T11:58:39.918Z,15.85
2018-11-13T11:59:39.933Z,15.85
2018-11-13T12:00:39.957Z,15.88
2018-11-13T12:01:40.004Z,15.85
2018-11-13T12:02:39.947Z,15.83
2018-11-13T12:03:39.945Z,15.81
2018-11-13T12:04:39.964Z,15.85
2018-11-13T12:05:39.985Z,15.81
2018-11-13T12:06:39.977Z,15.76
2018-11-13T12:07:40.010Z,15.76
2018-11-13T12:08:39.980Z,15.67
2018-11-13T12:09:39.985Z,15.67
2018-11-13T12:10:40.003Z,15.76
2018-11-13T12:11:40.037Z,15.81
2018-11-13T12:12:40.034Z,15.73
2018-11-13T12:13:40.041Z,15.81
2018-11-13T12:14:40.023Z,15.75
2018-11-13T12:15:40.036Z,15.85
2018-11-13T12:16:40.052Z,15.83
2018-11-13T12:17:40.073Z,15.83
2018-11-13T12:18:40.108Z,15.81
2018-11-13T12:19:40.144Z,15.80
2018-11-13T12:20:40.080Z,15.80
2018-11-13T12:21:40.101Z,15.75
2018-11-13T12:22:40.092Z,15.76
2018-11-13T12:23:40.127Z,15.90
2018-11-13T12:24:40.147Z,15.91
2018-11-13T12:25:40.157Z,15.88
2018-11-13T12:26:41.968Z,15.96
2018-11-13T12:27:40.126Z,15.90
2018-11-13T12:28:40.194Z,15.98
2018-11-13T12:29:40.182Z,15.92
2018-11-13T12:30:40.199Z,16.00
2018-11-13T12:31:40.180Z,15.96
2018-11-13T12:32:40.180Z,16.02
2018-11-13T12:33:40.194Z,16.16
2018-11-13T12:34:40.315Z,16.16
2018-11-13T12:35:40.207Z,16.25
2018-11-13T12:36:40.209Z,16.32
2018-11-13T12:37:40.221Z,16.39
2018-11-13T12:38:40.242Z,16.41
2018-11-13T12:39:40.250Z,16.51
2018-11-13T12:40:41.625Z,16.55
2018-11-13T12:41:40.249Z,16.54
2018-11-13T12:42:40.264Z,16.57
2018-11-13T12:43:40.281Z,16.50
2018-11-13T12:44:40.279Z,16.62
2018-11-13T12:45:40.320Z,16.62
2018-11-13T12:46:40.382Z,16.51
2018-11-13T12:47:40.354Z,16.39
2018-11-13T12:48:40.392Z,16.46
2018-11-13T12:49:40.321Z,16.47
2018-11-13T12:50:40.331Z,16.50
2018-11-13T12:51:40.357Z,16.51
2018-11-13T12:52:40.403Z,16.68